Livonia, New York
Current Conditions -  °F | °C
As of 5:54 AM on Tuesday 21 Oct 2014 (Local Time) from KDSV Reporting Station
Moderate Rain Moderate Rain  
Wind Chill:   Ceiling: 3200
Heat Index:   Visibility: 10mi
Dew Point:   Wind: 7mph
Humidity: 93%   Direction: 130°SE
Pressure: 29.8"   Gusts: NA
Location:  42.82°N, 77.67°W
Report Text: KDSV 210954Z AUTO 13006KT 10SM RA BKN032 BKN041 OVC050 09/08 A2980 RMK AO2 SLP100 P0007 T00940083
Loading
Personal Weather Stations






























Interactive Weather Map
Tropical Storm Tracking
New forecast layout! Learn more

10-Day Weather Forecast

Advertisements
Track Severe Weather on mobile